createdAt,value
2018-08-10T00:01:48.531Z,19.60
2018-08-10T00:04:52.060Z,19.50
2018-08-10T00:07:55.258Z,19.50
2018-08-10T00:10:58.584Z,19.40
2018-08-10T00:14:01.987Z,19.40
2018-08-10T00:17:05.227Z,19.40
2018-08-10T00:20:10.988Z,19.30
2018-08-10T00:23:14.153Z,19.30
2018-08-10T00:26:17.378Z,19.20
2018-08-10T00:29:21.160Z,19.10
2018-08-10T00:32:24.750Z,19.00
2018-08-10T00:35:27.979Z,19.00
2018-08-10T00:38:31.239Z,19.00
2018-08-10T00:41:34.535Z,19.00
2018-08-10T00:44:37.846Z,19.00
2018-08-10T00:47:41.399Z,19.10
2018-08-10T00:50:44.694Z,19.10
2018-08-10T00:53:48.068Z,19.00
2018-08-10T00:56:51.411Z,19.00
2018-08-10T00:59:54.710Z,18.90
2018-08-10T01:02:57.986Z,18.80
2018-08-10T01:06:01.337Z,18.70
2018-08-10T01:09:08.186Z,18.70
2018-08-10T01:12:11.549Z,18.70
2018-08-10T01:15:15.844Z,18.60
2018-08-10T01:18:18.995Z,18.50
2018-08-10T01:21:22.305Z,18.50
2018-08-10T01:24:25.606Z,18.40
2018-08-10T01:27:34.334Z,18.40
2018-08-10T01:30:37.661Z,18.30
2018-08-10T01:33:47.725Z,18.20
2018-08-10T01:36:51.004Z,18.20
2018-08-10T01:39:54.305Z,18.20
2018-08-10T01:42:57.586Z,18.20
2018-08-10T01:46:00.942Z,18.10
2018-08-10T01:49:04.385Z,18.00
2018-08-10T01:52:07.470Z,17.90
2018-08-10T01:55:11.165Z,17.80
2018-08-10T01:58:14.234Z,17.80
2018-08-10T02:01:17.347Z,17.70
2018-08-10T02:04:20.441Z,17.70
2018-08-10T02:07:24.401Z,17.60
2018-08-10T02:11:18.036Z,17.60
2018-08-10T02:14:21.093Z,17.50
2018-08-10T02:17:24.165Z,17.50
2018-08-10T02:20:27.277Z,17.60
2018-08-10T02:23:30.387Z,17.50
2018-08-10T02:26:33.469Z,17.50
2018-08-10T02:29:36.520Z,17.50
2018-08-10T02:32:40.464Z,17.50
2018-08-10T02:35:44.132Z,17.30
2018-08-10T02:38:47.225Z,17.20
2018-08-10T02:41:50.304Z,17.10
2018-08-10T02:44:53.348Z,17.00
2018-08-10T02:47:56.441Z,16.90
2018-08-10T02:50:59.544Z,16.80
2018-08-10T02:54:02.621Z,16.80
2018-08-10T02:57:05.661Z,16.70
2018-08-10T03:00:10.862Z,16.60
2018-08-10T03:03:13.957Z,16.50
2018-08-10T03:06:17.096Z,16.40
2018-08-10T03:09:20.234Z,16.30
2018-08-10T03:12:23.360Z,16.30
2018-08-10T03:15:26.427Z,16.20
2018-08-10T03:18:29.787Z,16.30
2018-08-10T03:21:32.880Z,16.30
2018-08-10T03:24:36.481Z,16.30
2018-08-10T03:27:39.576Z,16.30
2018-08-10T03:30:42.665Z,16.30
2018-08-10T03:33:45.758Z,16.20
2018-08-10T03:36:48.854Z,16.20
2018-08-10T03:39:52.610Z,16.20
2018-08-10T03:42:55.764Z,16.20
2018-08-10T03:45:58.857Z,16.10
2018-08-10T03:49:01.924Z,16.20
2018-08-10T03:52:05.022Z,16.00
2018-08-10T03:55:08.545Z,15.90
2018-08-10T03:58:11.617Z,15.80
2018-08-10T04:01:14.733Z,15.70
2018-08-10T04:04:17.790Z,15.70
2018-08-10T04:07:20.868Z,15.70
2018-08-10T04:10:23.957Z,15.80
2018-08-10T04:13:27.053Z,15.80
2018-08-10T04:16:30.144Z,15.90
2018-08-10T04:19:33.220Z,15.90
2018-08-10T04:22:36.371Z,15.90
2018-08-10T04:25:39.421Z,16.00
2018-08-10T04:28:42.518Z,16.00
2018-08-10T04:31:45.578Z,16.00
2018-08-10T04:34:48.722Z,16.10
2018-08-10T04:37:51.897Z,16.00
2018-08-10T04:40:54.941Z,16.00
2018-08-10T04:43:58.018Z,16.00
2018-08-10T04:47:01.133Z,16.00
2018-08-10T04:50:04.410Z,16.00
2018-08-10T04:53:07.471Z,16.00
2018-08-10T04:56:10.574Z,16.00
2018-08-10T04:59:13.641Z,16.00
2018-08-10T05:02:16.706Z,16.00
2018-08-10T05:05:19.785Z,15.90
2018-08-10T05:08:22.878Z,16.00
2018-08-10T05:11:26.089Z,16.00
2018-08-10T05:14:29.436Z,15.80
2018-08-10T05:17:32.841Z,15.80
2018-08-10T05:20:36.286Z,15.80
2018-08-10T05:23:39.638Z,15.80
2018-08-10T05:26:42.889Z,15.90
2018-08-10T05:29:46.097Z,15.90
2018-08-10T05:32:49.395Z,15.90
2018-08-10T05:35:52.726Z,15.90
2018-08-10T05:38:56.082Z,16.00
2018-08-10T05:41:59.331Z,16.60
2018-08-10T05:45:02.561Z,18.50
2018-08-10T05:48:06.016Z,20.50
2018-08-10T05:51:11.514Z,22.90
2018-08-10T05:54:14.906Z,23.10
2018-08-10T05:57:18.073Z,24.30
2018-08-10T06:00:21.290Z,25.50
2018-08-10T06:03:25.328Z,26.00
2018-08-10T06:06:28.473Z,24.90
2018-08-10T06:09:31.731Z,23.30
2018-08-10T06:12:35.054Z,22.90
2018-08-10T06:15:38.438Z,22.00
2018-08-10T06:18:41.838Z,21.20
2018-08-10T06:21:45.079Z,22.70
2018-08-10T06:24:48.170Z,24.10
2018-08-10T06:27:51.451Z,25.20
2018-08-10T06:30:54.582Z,26.00
2018-08-10T06:33:57.959Z,27.00
2018-08-10T06:37:19.837Z,26.30
2018-08-10T06:40:25.016Z,26.80
2018-08-10T06:43:42.260Z,27.30
2018-08-10T06:46:50.321Z,26.80
2018-08-10T06:53:29.101Z,25.30
2018-08-10T06:56:49.422Z,25.40
2018-08-10T07:00:07.690Z,24.90
2018-08-10T07:03:12.864Z,24.10
2018-08-10T07:06:22.488Z,23.70
2018-08-10T07:09:46.169Z,23.80
2018-08-10T07:12:50.300Z,25.40
2018-08-10T07:16:00.029Z,26.70
2018-08-10T07:19:08.427Z,27.40
2018-08-10T07:22:17.404Z,27.60
2018-08-10T07:25:40.614Z,27.30
2018-08-10T07:28:49.591Z,28.10
2018-08-10T07:32:00.182Z,27.20
2018-08-10T07:35:10.000Z,26.00
2018-08-10T07:38:20.906Z,24.20
2018-08-10T07:41:23.975Z,23.90
2018-08-10T07:44:35.659Z,23.70
2018-08-10T07:47:42.146Z,22.70
2018-08-10T07:51:03.083Z,22.20
2018-08-10T07:54:06.280Z,22.30
2018-08-10T07:57:12.921Z,22.30
2018-08-10T08:00:24.280Z,22.10
2018-08-10T08:03:30.604Z,21.80
2018-08-10T08:06:35.696Z,21.90
2018-08-10T08:09:44.429Z,22.20
2018-08-10T08:12:55.752Z,22.10
2018-08-10T08:16:16.266Z,21.90
2018-08-10T08:19:23.194Z,21.70
2018-08-10T08:22:30.074Z,21.80
2018-08-10T08:29:25.654Z,22.60
2018-08-10T08:32:48.545Z,22.40
2018-08-10T08:36:03.497Z,22.90
2018-08-10T08:40:16.429Z,23.50
2018-08-10T08:43:31.790Z,23.90
2018-08-10T08:46:35.666Z,24.40
2018-08-10T08:49:38.584Z,25.30
2018-08-10T08:52:42.641Z,25.30
2018-08-10T08:55:51.695Z,25.60
2018-08-10T08:58:54.761Z,25.30
2018-08-10T09:02:16.242Z,24.70
2018-08-10T09:05:19.392Z,24.20
2018-08-10T09:08:22.473Z,23.70
2018-08-10T09:11:25.561Z,24.00
2018-08-10T09:14:42.585Z,24.10
2018-08-10T09:17:45.666Z,23.70
2018-08-10T09:20:48.735Z,22.80
2018-08-10T09:23:52.796Z,22.30
2018-08-10T09:26:55.927Z,22.40
2018-08-10T09:29:58.953Z,22.50
2018-08-10T09:33:02.033Z,22.80
2018-08-10T09:36:05.310Z,23.60
2018-08-10T09:39:08.408Z,23.80
2018-08-10T09:42:21.452Z,23.40
2018-08-10T09:45:24.717Z,23.00
2018-08-10T09:48:27.824Z,22.90
2018-08-10T09:51:30.900Z,23.00
2018-08-10T09:55:44.809Z,23.00
2018-08-10T09:58:47.893Z,23.00
2018-08-10T10:01:56.393Z,23.20
2018-08-10T10:04:59.478Z,23.30
2018-08-10T10:08:15.256Z,22.90
2018-08-10T10:11:18.317Z,22.60
2018-08-10T10:14:21.408Z,22.40
2018-08-10T10:17:24.514Z,22.50
2018-08-10T10:20:27.616Z,22.70
2018-08-10T10:23:30.681Z,22.80
2018-08-10T10:26:33.765Z,23.00
2018-08-10T10:29:36.832Z,23.00
2018-08-10T10:32:40.088Z,22.80
2018-08-10T10:35:43.093Z,22.70
2018-08-10T10:38:46.154Z,22.40
2018-08-10T10:41:49.221Z,22.30
2018-08-10T10:44:52.292Z,22.50
2018-08-10T10:47:55.396Z,22.50
2018-08-10T10:50:58.530Z,22.20
2018-08-10T10:54:01.541Z,21.90
2018-08-10T10:57:04.650Z,21.80
2018-08-10T11:00:10.273Z,21.90
2018-08-10T11:03:13.365Z,22.10
2018-08-10T11:06:16.504Z,22.30
2018-08-10T11:09:19.554Z,22.50
2018-08-10T11:12:22.674Z,22.70
2018-08-10T11:15:25.753Z,22.70
2018-08-10T11:18:28.830Z,23.00
2018-08-10T11:21:32.108Z,23.20
2018-08-10T11:24:35.202Z,23.30
2018-08-10T11:27:40.989Z,23.20
2018-08-10T11:30:57.130Z,23.10
2018-08-10T11:34:00.224Z,23.00
2018-08-10T11:37:03.313Z,22.90
2018-08-10T11:40:07.905Z,22.80
2018-08-10T11:43:21.229Z,22.70
2018-08-10T11:46:24.312Z,22.60
2018-08-10T11:49:27.373Z,22.20
2018-08-10T11:52:30.536Z,21.80
2018-08-10T11:55:33.569Z,21.50
2018-08-10T11:58:36.653Z,21.50
2018-08-10T12:01:39.821Z,21.70
2018-08-10T12:04:42.899Z,22.20
2018-08-10T12:07:45.977Z,22.60
2018-08-10T12:10:49.019Z,22.80
2018-08-10T12:13:52.118Z,22.90
2018-08-10T12:16:55.186Z,23.30
2018-08-10T12:20:04.969Z,23.30
2018-08-10T12:23:08.064Z,23.20
2018-08-10T12:26:11.145Z,23.30
2018-08-10T12:29:14.233Z,23.30
2018-08-10T12:32:17.315Z,23.50
2018-08-10T12:35:20.361Z,23.60
2018-08-10T12:38:23.470Z,23.60
2018-08-10T12:41:26.525Z,23.50
2018-08-10T12:44:29.604Z,23.50
2018-08-10T12:47:32.689Z,23.50
2018-08-10T12:50:35.847Z,23.20
2018-08-10T12:53:38.820Z,23.00
2018-08-10T12:56:41.932Z,23.00
2018-08-10T12:59:45.102Z,22.80
2018-08-10T13:02:48.206Z,22.50
2018-08-10T13:05:51.273Z,22.40
2018-08-10T13:08:54.350Z,22.40
2018-08-10T13:11:57.409Z,22.70
2018-08-10T13:15:00.478Z,22.90
2018-08-10T13:18:03.794Z,22.80
2018-08-10T13:21:06.845Z,23.00
2018-08-10T13:24:09.929Z,23.30
2018-08-10T13:27:13.048Z,23.60
2018-08-10T13:30:16.129Z,23.60
2018-08-10T13:33:19.205Z,23.60
2018-08-10T13:36:22.277Z,23.50
2018-08-10T13:39:25.396Z,23.30
2018-08-10T13:42:28.513Z,23.30
2018-08-10T13:45:31.807Z,23.20
2018-08-10T13:48:35.114Z,23.00
2018-08-10T13:51:38.486Z,22.70
2018-08-10T13:54:41.814Z,22.60
2018-08-10T13:57:45.422Z,22.60
2018-08-10T14:00:48.689Z,22.80
2018-08-10T14:03:52.055Z,23.00
2018-08-10T14:07:03.832Z,23.20
2018-08-10T14:10:07.185Z,23.20
2018-08-10T14:13:10.425Z,23.30
2018-08-10T14:16:13.698Z,23.40
2018-08-10T14:19:17.010Z,23.40
2018-08-10T14:22:20.182Z,23.30
2018-08-10T14:25:23.261Z,23.20
2018-08-10T14:28:26.360Z,23.10
2018-08-10T14:31:29.555Z,22.80
2018-08-10T14:34:32.681Z,22.70
2018-08-10T14:37:36.898Z,22.60
2018-08-10T14:40:39.989Z,22.70
2018-08-10T14:43:43.065Z,22.80
2018-08-10T14:46:56.671Z,22.90
2018-08-10T14:49:59.681Z,23.10
2018-08-10T14:53:02.735Z,23.10
2018-08-10T14:56:06.045Z,23.10
2018-08-10T14:59:09.102Z,23.10
2018-08-10T15:02:12.185Z,23.10
2018-08-10T15:05:29.565Z,23.20
2018-08-10T15:08:32.683Z,23.40
2018-08-10T15:11:35.748Z,23.50
2018-08-10T15:14:38.821Z,23.40
2018-08-10T15:17:41.886Z,23.40
2018-08-10T15:20:44.955Z,23.30
2018-08-10T15:23:48.036Z,23.10
2018-08-10T15:26:51.096Z,22.90
2018-08-10T15:29:54.158Z,22.80
2018-08-10T15:32:57.261Z,22.70
2018-08-10T15:36:00.362Z,22.50
2018-08-10T15:39:05.421Z,22.20
2018-08-10T15:42:08.668Z,22.10
2018-08-10T15:45:13.045Z,22.10
2018-08-10T15:48:16.101Z,22.20
2018-08-10T15:51:19.174Z,22.20
2018-08-10T15:54:22.284Z,22.40
2018-08-10T15:57:25.420Z,22.50
2018-08-10T16:00:28.501Z,22.70
2018-08-10T16:03:31.581Z,22.70
2018-08-10T16:06:34.993Z,22.80
2018-08-10T16:09:38.138Z,23.00
2018-08-10T16:12:41.498Z,23.10
2018-08-10T16:15:44.750Z,23.10
2018-08-10T16:18:47.985Z,23.10
2018-08-10T16:21:51.207Z,22.90
2018-08-10T16:24:54.490Z,22.70
2018-08-10T16:27:57.694Z,22.60
2018-08-10T16:31:01.036Z,22.40
2018-08-10T16:34:04.616Z,22.20
2018-08-10T16:37:08.014Z,22.00
2018-08-10T16:40:13.590Z,21.90
2018-08-10T16:43:16.946Z,21.80
2018-08-10T16:46:20.361Z,21.80
2018-08-10T16:49:23.695Z,21.80
2018-08-10T16:52:27.121Z,22.00
2018-08-10T16:55:30.541Z,22.20
2018-08-10T16:58:33.860Z,22.30
2018-08-10T17:01:37.247Z,22.50
2018-08-10T17:04:40.462Z,22.40
2018-08-10T17:07:44.149Z,22.40
2018-08-10T17:10:47.498Z,22.30
2018-08-10T17:13:50.807Z,22.20
2018-08-10T17:16:54.118Z,22.10
2018-08-10T17:19:57.490Z,22.00
2018-08-10T17:23:00.886Z,21.90
2018-08-10T17:26:04.127Z,21.90
2018-08-10T17:29:07.450Z,21.80
2018-08-10T17:32:10.807Z,21.80
2018-08-10T17:35:15.036Z,21.70
2018-08-10T17:38:18.253Z,21.70
2018-08-10T17:41:21.584Z,21.60
2018-08-10T17:44:24.908Z,21.50
2018-08-10T17:47:28.091Z,21.50
2018-08-10T17:50:31.238Z,21.40
2018-08-10T17:53:41.098Z,21.30
2018-08-10T17:56:44.414Z,21.30
2018-08-10T17:59:47.704Z,21.20
2018-08-10T18:02:51.294Z,21.20
2018-08-10T18:05:54.540Z,21.10
2018-08-10T18:08:57.745Z,21.00
2018-08-10T18:12:07.261Z,21.00
2018-08-10T18:15:13.086Z,21.00
2018-08-10T18:18:16.418Z,21.00
2018-08-10T18:21:19.751Z,20.90
2018-08-10T18:24:23.398Z,20.90
2018-08-10T18:27:27.790Z,20.70
2018-08-10T18:30:31.002Z,20.70
2018-08-10T18:33:34.318Z,20.60
2018-08-10T18:36:37.600Z,20.50
2018-08-10T18:39:40.913Z,20.40
2018-08-10T18:42:45.249Z,20.40
2018-08-10T18:45:48.598Z,20.30
2018-08-10T18:48:51.836Z,20.20
2018-08-10T18:51:55.111Z,20.10
2018-08-10T18:54:58.346Z,20.00
2018-08-10T18:58:01.574Z,20.00
2018-08-10T19:01:04.907Z,19.90
2018-08-10T19:04:08.142Z,19.90
2018-08-10T19:07:11.345Z,19.90
2018-08-10T19:10:23.939Z,19.70
2018-08-10T19:13:27.172Z,19.70
2018-08-10T19:16:30.386Z,19.70
2018-08-10T19:19:33.585Z,19.60
2018-08-10T19:22:37.042Z,19.50
2018-08-10T19:25:40.239Z,19.50
2018-08-10T19:28:43.521Z,19.50
2018-08-10T19:31:46.895Z,19.40
2018-08-10T19:34:50.162Z,19.30
2018-08-10T19:37:53.542Z,19.20
2018-08-10T19:40:56.826Z,19.20
2018-08-10T19:44:00.064Z,19.10
2018-08-10T19:47:03.460Z,19.00
2018-08-10T19:50:07.542Z,18.90
2018-08-10T19:53:10.947Z,18.80
2018-08-10T19:56:14.234Z,18.80
2018-08-10T19:59:18.254Z,18.70
2018-08-10T20:02:22.381Z,18.70
2018-08-10T20:05:25.705Z,18.70
2018-08-10T20:08:38.982Z,18.70
2018-08-10T20:11:42.178Z,18.60
2018-08-10T20:14:45.450Z,18.50
2018-08-10T20:17:48.799Z,18.50
2018-08-10T20:20:52.171Z,18.50
2018-08-10T20:23:55.373Z,18.50
2018-08-10T20:26:58.693Z,18.50
2018-08-10T20:30:02.028Z,18.40
2018-08-10T20:33:05.297Z,18.40
2018-08-10T20:36:08.596Z,18.40
2018-08-10T20:39:12.191Z,18.40
2018-08-10T20:42:15.489Z,18.30
2018-08-10T20:45:19.414Z,18.20
2018-08-10T20:48:22.694Z,18.10
2018-08-10T20:51:26.043Z,18.00
2018-08-10T20:54:29.436Z,18.00
2018-08-10T20:57:32.720Z,17.90
2018-08-10T21:00:36.042Z,17.90
2018-08-10T21:03:39.294Z,17.90
2018-08-10T21:06:42.570Z,17.90
2018-08-10T21:09:46.502Z,17.80
2018-08-10T21:12:49.799Z,17.80
2018-08-10T21:15:53.057Z,17.80
2018-08-10T21:18:56.433Z,17.80
2018-08-10T21:21:59.676Z,17.80
2018-08-10T21:25:03.034Z,17.80
2018-08-10T21:28:06.286Z,17.70
2018-08-10T21:31:09.483Z,17.60
2018-08-10T21:34:12.753Z,17.60
2018-08-10T21:37:16.025Z,17.60
2018-08-10T21:40:19.311Z,17.60
2018-08-10T21:43:22.752Z,17.60
2018-08-10T21:46:26.064Z,17.60
2018-08-10T21:49:29.384Z,17.60
2018-08-10T21:52:32.682Z,17.50
2018-08-10T21:55:36.029Z,17.60
2018-08-10T21:58:39.334Z,17.50
2018-08-10T22:01:42.526Z,17.50
2018-08-10T22:04:45.785Z,17.50
2018-08-10T22:07:49.030Z,17.50
2018-08-10T22:10:52.347Z,17.50
2018-08-10T22:14:01.248Z,17.50
2018-08-10T22:17:10.078Z,17.40
2018-08-10T22:20:13.418Z,17.30
2018-08-10T22:23:16.745Z,17.30
2018-08-10T22:26:19.982Z,17.20
2018-08-10T22:29:23.126Z,17.20
2018-08-10T22:32:26.412Z,17.10
2018-08-10T22:35:29.656Z,17.00
2018-08-10T22:38:33.010Z,17.00
2018-08-10T22:41:36.214Z,17.00
2018-08-10T22:44:39.506Z,17.10
2018-08-10T22:47:42.800Z,17.00
2018-08-10T22:50:46.046Z,16.90
2018-08-10T22:53:49.336Z,16.90
2018-08-10T22:56:52.698Z,16.90
2018-08-10T22:59:56.047Z,16.80
2018-08-10T23:02:59.310Z,16.80
2018-08-10T23:06:02.606Z,16.80
2018-08-10T23:09:08.202Z,16.80
2018-08-10T23:12:11.454Z,16.70
2018-08-10T23:15:14.659Z,16.70
2018-08-10T23:18:17.991Z,16.60
2018-08-10T23:21:21.237Z,16.70
2018-08-10T23:24:24.533Z,16.70
2018-08-10T23:27:27.844Z,16.70
2018-08-10T23:30:31.258Z,16.70
2018-08-10T23:33:34.370Z,16.70
2018-08-10T23:36:37.709Z,16.70
2018-08-10T23:39:40.974Z,16.70
2018-08-10T23:42:44.983Z,16.70
2018-08-10T23:45:48.233Z,16.70
2018-08-10T23:48:51.606Z,16.80
2018-08-10T23:51:54.836Z,16.80
2018-08-10T23:54:58.159Z,16.80
2018-08-10T23:58:01.447Z,16.90
